Fidelity, Illinois
Current Conditions -  °F | °C
As of 1:50 PM on Friday 21 Nov 2014 (Local Time) from KALN Reporting Station
Clear Clear  
Wind Chill: 32°   Ceiling: Unl
Heat Index: 39°   Visibility: 10mi
Dew Point: 14°   Wind: 12mph
Humidity: 36%   Direction: 130°SE
Pressure: 30.34"   Gusts: NA
Location:  39.15°N, 90.16°W
Report Text: KALN 211950Z 13010KT 10SM SKC 04/M10 A3034
Loading
Personal Weather Stations






























Interactive Weather Map New forecast layout! Learn more

10-Day Weather Forecast

Advertisements
Track Severe Weather on mobile